Time;durP1;ratioP1;P1;durP2;ratioP2;P2;SDS_P1;SDS_P2;PMS_P1;PMS_P2;Temp;Humidity;BMP_temperature;BMP_pressure;BME280_temperature;BME280_humidity;BME280_pressure;Samples;Min_cycle;Max_cycle;Signal;HPM_P1;HPM_P2
2024/04/21 00:02:24;;;;;;;2.17;2.07;;;6.90;99.90;;;;;;5402808;26;20327;-71
2024/04/21 00:04:49;;;;;;;2.60;2.40;;;6.90;99.90;;;;;;5402635;26;20210;-71
2024/04/21 00:07:15;;;;;;;2.37;2.17;;;7.00;99.90;;;;;;5402847;26;20234;-71
2024/04/21 00:09:40;;;;;;;2.20;2.00;;;6.80;99.90;;;;;;5402844;26;20728;-69
2024/04/21 00:12:06;;;;;;;1.70;1.57;;;6.90;99.90;;;;;;5403274;26;20256;-72
2024/04/21 00:14:32;;;;;;;4.23;1.83;;;6.90;99.90;;;;;;5405539;26;20428;-70
2024/04/21 00:16:57;;;;;;;2.00;1.60;;;6.90;99.90;;;;;;5402957;26;20229;-72
2024/04/21 00:19:23;;;;;;;1.90;1.67;;;6.90;99.90;;;;;;5402224;26;20226;-71
2024/04/21 00:21:48;;;;;;;1.53;1.40;;;6.80;99.90;;;;;;5402099;26;20328;-72
2024/04/21 00:24:14;;;;;;;1.57;1.27;;;6.90;99.90;;;;;;5402441;26;20288;-71
2024/04/21 00:26:40;;;;;;;3.40;1.10;;;6.70;99.90;;;;;;5402339;26;21387;-71
2024/04/21 00:29:05;;;;;;;1.77;1.10;;;6.70;99.90;;;;;;5404199;26;20225;-71
2024/04/21 00:31:31;;;;;;;1.20;1.10;;;6.90;99.90;;;;;;5406354;26;20664;-72
2024/04/21 00:33:56;;;;;;;1.37;1.20;;;7.00;99.90;;;;;;5405854;26;20658;-71
2024/04/21 00:36:22;;;;;;;1.70;1.10;;;7.10;99.90;;;;;;5406052;26;20243;-71
2024/04/21 00:38:48;;;;;;;1.20;1.10;;;7.00;99.90;;;;;;5405744;26;20226;-70
2024/04/21 00:41:13;;;;;;;2.27;1.40;;;7.10;99.90;;;;;;5405368;26;20952;-69
2024/04/21 00:43:39;;;;;;;1.30;0.90;;;7.10;99.90;;;;;;5405196;26;20230;-71
2024/04/21 00:46:05;;;;;;;1.70;1.60;;;7.10;99.90;;;;;;5405595;26;20213;-75
2024/04/21 00:48:32;;;;;;;1.27;1.00;;;7.10;99.90;;;;;;5405478;26;20223;-72
2024/04/21 00:50:59;;;;;;;2.10;1.50;;;7.00;99.90;;;;;;5405721;26;20527;-71
2024/04/21 00:53:25;;;;;;;2.13;1.67;;;6.90;99.90;;;;;;5405732;26;20496;-70
2024/04/21 00:55:52;;;;;;;1.23;1.00;;;6.80;99.90;;;;;;5405345;26;20439;-71
2024/04/21 00:58:18;;;;;;;1.63;1.50;;;6.80;99.90;;;;;;5405453;26;20268;-70
2024/04/21 01:00:46;;;;;;;1.80;1.30;;;7.00;99.90;;;;;;5405650;26;20436;-70
2024/04/21 01:03:11;;;;;;;1.73;1.10;;;7.10;99.90;;;;;;5405784;26;20561;-72
2024/04/21 01:05:37;;;;;;;1.30;1.10;;;7.20;99.90;;;;;;5405428;26;20448;-70
2024/04/21 01:08:04;;;;;;;1.27;1.17;;;7.30;99.90;;;;;;5405557;26;20234;-72
2024/04/21 01:10:30;;;;;;;1.30;1.20;;;7.30;99.90;;;;;;5405541;26;20265;-73
2024/04/21 01:12:55;;;;;;;1.23;1.13;;;7.20;99.90;;;;;;5405976;26;20490;-71
2024/04/21 01:15:21;;;;;;;1.13;1.03;;;7.30;99.90;;;;;;5404920;26;20982;-71
2024/04/21 01:17:47;;;;;;;1.87;1.10;;;7.20;99.90;;;;;;5405910;26;20234;-71
2024/04/21 01:20:12;;;;;;;2.50;0.80;;;7.20;99.90;;;;;;5405545;26;20229;-71
2024/04/21 01:22:46;;;;;;;2.00;1.33;;;7.20;99.90;;;;;;5405099;26;20279;-71
2024/04/21 01:25:12;;;;;;;1.50;1.20;;;7.10;99.90;;;;;;5405115;26;20566;-72
2024/04/21 01:27:37;;;;;;;1.57;0.90;;;7.20;99.90;;;;;;5405369;26;20508;-71
2024/04/21 01:30:03;;;;;;;1.80;0.90;;;7.20;99.90;;;;;;5404707;26;20574;-71
2024/04/21 01:32:29;;;;;;;1.70;1.20;;;7.30;99.90;;;;;;5405110;26;20214;-70
2024/04/21 01:34:54;;;;;;;1.73;1.03;;;7.20;99.90;;;;;;5405149;26;20641;-71
2024/04/21 01:37:20;;;;;;;1.40;0.90;;;7.30;99.90;;;;;;5404649;26;20233;-72
2024/04/21 01:39:45;;;;;;;1.10;0.80;;;7.30;99.90;;;;;;5402280;26;20768;-72
2024/04/21 01:42:11;;;;;;;1.10;1.00;;;7.40;99.90;;;;;;5404711;26;20218;-72
2024/04/21 01:44:36;;;;;;;1.27;1.00;;;7.50;99.90;;;;;;5404913;26;20256;-71
2024/04/21 01:47:02;;;;;;;0.87;0.80;;;7.50;99.90;;;;;;5404433;26;20312;-71
2024/04/21 01:49:28;;;;;;;1.43;0.90;;;7.30;99.90;;;;;;5404816;26;20269;-71
2024/04/21 01:51:54;;;;;;;1.00;0.90;;;7.10;99.90;;;;;;5404267;26;20213;-71
2024/04/21 01:54:19;;;;;;;4.30;1.03;;;7.10;99.90;;;;;;5405045;26;21866;-70
2024/04/21 01:56:45;;;;;;;1.40;1.27;;;7.00;99.90;;;;;;5404417;26;20330;-71
2024/04/21 01:59:11;;;;;;;2.77;1.10;;;6.80;99.90;;;;;;5404204;26;20304;-72
2024/04/21 02:01:36;;;;;;;0.80;0.60;;;6.70;99.90;;;;;;5404591;26;20325;-71
2024/04/21 02:04:02;;;;;;;1.00;0.90;;;6.90;99.90;;;;;;5404557;26;20264;-70
2024/04/21 02:06:29;;;;;;;2.30;1.10;;;6.90;99.90;;;;;;5404391;26;20463;-71
2024/04/21 02:08:54;;;;;;;1.50;1.03;;;6.90;99.90;;;;;;5404291;26;20226;-69
2024/04/21 02:11:20;;;;;;;3.00;1.07;;;6.90;99.90;;;;;;5404498;26;20500;-72
2024/04/21 02:13:45;;;;;;;1.30;1.00;;;6.90;99.90;;;;;;5404320;26;20880;-70
2024/04/21 02:16:11;;;;;;;1.83;1.00;;;6.80;99.90;;;;;;5404724;26;20654;-72
2024/04/21 02:18:36;;;;;;;1.43;1.10;;;6.90;99.90;;;;;;5404364;26;20227;-70
2024/04/21 02:21:02;;;;;;;1.27;0.97;;;7.00;99.90;;;;;;5404304;26;20225;-71
2024/04/21 02:23:28;;;;;;;2.10;1.17;;;7.10;99.90;;;;;;5404161;26;20359;-71
2024/04/21 02:25:58;;;;;;;1.67;1.27;;;7.20;99.90;;;;;;5404000;26;20226;-69
2024/04/21 02:28:23;;;;;;;1.73;1.23;;;7.20;99.90;;;;;;5404525;26;20449;-71
2024/04/21 02:30:49;;;;;;;1.93;1.30;;;7.10;99.90;;;;;;5404218;26;20448;-70
2024/04/21 02:33:15;;;;;;;1.93;1.20;;;7.20;99.90;;;;;;5403217;26;20754;-70
2024/04/21 02:35:40;;;;;;;1.33;1.17;;;7.10;99.90;;;;;;5404317;26;21381;-71
2024/04/21 02:38:06;;;;;;;1.40;1.30;;;7.00;99.90;;;;;;5404480;26;20232;-71
2024/04/21 02:40:31;;;;;;;1.87;1.30;;;7.00;99.90;;;;;;5404027;26;20218;-71
2024/04/21 02:42:57;;;;;;;1.70;1.60;;;7.10;99.90;;;;;;5403917;26;20737;-69
2024/04/21 02:45:22;;;;;;;1.70;1.30;;;7.10;99.90;;;;;;5403371;26;20350;-72
2024/04/21 02:47:48;;;;;;;3.47;1.40;;;7.10;99.90;;;;;;5403612;26;20260;-70
2024/04/21 02:50:13;;;;;;;2.40;1.80;;;7.20;99.90;;;;;;5403423;26;20235;-72
2024/04/21 02:52:39;;;;;;;2.27;1.50;;;7.20;99.90;;;;;;5403082;26;20218;-72
2024/04/21 02:55:04;;;;;;;4.70;1.60;;;7.40;99.90;;;;;;5403747;26;20225;-71
2024/04/21 02:57:31;;;;;;;2.60;1.90;;;7.20;99.90;;;;;;5403547;26;20231;-70
2024/04/21 02:59:57;;;;;;;3.80;2.00;;;7.00;99.90;;;;;;5404135;26;20573;-71
2024/04/21 03:02:23;;;;;;;2.30;2.03;;;7.10;99.90;;;;;;5403615;26;20529;-71
2024/04/21 03:04:49;;;;;;;2.93;1.87;;;6.90;99.90;;;;;;5403978;26;20225;-71
2024/04/21 03:07:14;;;;;;;2.67;2.00;;;6.80;99.90;;;;;;5403635;26;20230;-70
2024/04/21 03:09:43;;;;;;;3.87;2.40;;;6.70;99.90;;;;;;5404238;26;20573;-71
2024/04/21 03:12:09;;;;;;;3.77;2.17;;;6.80;99.90;;;;;;5404204;26;20222;-71
2024/04/21 03:14:35;;;;;;;3.73;2.70;;;6.80;99.90;;;;;;5403306;26;20457;-71
2024/04/21 03:17:02;;;;;;;3.37;3.07;;;6.80;99.90;;;;;;5403582;26;21026;-68
2024/04/21 03:19:28;;;;;;;4.90;3.20;;;6.80;99.90;;;;;;5403813;26;20537;-71
2024/04/21 03:21:54;;;;;;;5.77;3.93;;;6.50;99.90;;;;;;5403387;26;20501;-69
2024/04/21 03:24:19;;;;;;;6.73;3.93;;;6.50;99.90;;;;;;5403714;26;20821;-71
2024/04/21 03:26:45;;;;;;;3.80;3.47;;;6.60;99.90;;;;;;5403313;26;20231;-71
2024/04/21 03:29:11;;;;;;;4.60;4.20;;;6.60;99.90;;;;;;5403292;26;20230;-71
2024/04/21 03:31:36;;;;;;;4.43;4.13;;;6.60;99.90;;;;;;5403454;26;20629;-70
2024/04/21 03:34:02;;;;;;;4.20;3.60;;;6.20;99.90;;;;;;5403713;26;20267;-71
2024/04/21 03:36:27;;;;;;;4.10;3.70;;;6.00;99.90;;;;;;5402815;26;20484;-70
2024/04/21 03:38:53;;;;;;;4.63;3.57;;;6.10;99.90;;;;;;5403353;26;20330;-70
2024/04/21 03:41:19;;;;;;;5.10;2.67;;;6.10;99.90;;;;;;5403192;26;20559;-72
2024/04/21 03:43:46;;;;;;;3.63;3.33;;;5.90;99.90;;;;;;5402724;26;20213;-69
2024/04/21 03:46:12;;;;;;;3.17;2.93;;;6.00;99.90;;;;;;5403247;26;20225;-71
2024/04/21 03:48:38;;;;;;;3.43;3.23;;;6.20;99.90;;;;;;5402816;26;20459;-71
2024/04/21 03:51:05;;;;;;;2.67;2.47;;;6.30;99.90;;;;;;5402905;26;20436;-71
2024/04/21 03:53:30;;;;;;;2.20;2.00;;;6.30;99.90;;;;;;5404234;26;20507;-71
2024/04/21 03:55:56;;;;;;;2.33;2.23;;;6.20;99.90;;;;;;5402725;26;20443;-70
2024/04/21 03:58:21;;;;;;;3.20;2.77;;;6.30;99.90;;;;;;5402531;26;20342;-71
2024/04/21 04:00:47;;;;;;;2.93;2.37;;;6.20;99.90;;;;;;5403002;26;20296;-71
2024/04/21 04:03:13;;;;;;;2.90;2.70;;;6.10;99.90;;;;;;5405062;26;20264;-72
2024/04/21 04:05:38;;;;;;;3.33;3.13;;;6.00;99.90;;;;;;5403985;26;20222;-70
2024/04/21 04:08:04;;;;;;;2.70;2.50;;;5.90;99.90;;;;;;5406506;26;20720;-72
2024/04/21 04:10:30;;;;;;;3.30;2.87;;;6.00;99.90;;;;;;5405917;26;20225;-70
2024/04/21 04:12:56;;;;;;;3.70;3.40;;;6.20;99.90;;;;;;5406362;26;20255;-71
2024/04/21 04:15:22;;;;;;;3.10;2.90;;;6.30;99.90;;;;;;5406647;26;20259;-72
2024/04/21 04:17:47;;;;;;;4.23;3.87;;;6.20;99.90;;;;;;5406277;26;20541;-71
2024/04/21 04:20:13;;;;;;;4.00;3.00;;;6.10;99.90;;;;;;5406207;26;20517;-71
2024/04/21 04:22:39;;;;;;;4.10;3.80;;;6.20;99.90;;;;;;5406240;26;20271;-69
2024/04/21 04:25:05;;;;;;;3.83;3.50;;;6.00;99.90;;;;;;5404946;26;20230;-71
2024/04/21 04:27:31;;;;;;;4.40;3.80;;;6.00;99.90;;;;;;5405758;26;20455;-70
2024/04/21 04:29:57;;;;;;;4.30;4.00;;;5.80;99.90;;;;;;5406105;26;20510;-72
2024/04/21 04:32:22;;;;;;;3.70;3.40;;;5.90;99.90;;;;;;5405479;26;20442;-72
2024/04/21 04:34:48;;;;;;;5.10;4.10;;;6.00;99.90;;;;;;5406069;26;20268;-71
2024/04/21 04:37:14;;;;;;;3.67;3.37;;;5.90;99.90;;;;;;5405800;26;20718;-71
2024/04/21 04:39:40;;;;;;;3.93;3.43;;;5.60;99.90;;;;;;5405650;26;20502;-71
2024/04/21 04:42:06;;;;;;;3.17;2.97;;;5.40;99.90;;;;;;5405840;26;20228;-70
2024/04/21 04:44:32;;;;;;;3.40;3.10;;;5.40;99.90;;;;;;5405936;26;21028;-70
2024/04/21 04:46:57;;;;;;;3.53;3.23;;;5.30;99.90;;;;;;5404691;26;20229;-70
2024/04/21 04:49:23;;;;;;;3.37;3.07;;;5.20;99.90;;;;;;5404994;26;20271;-70
2024/04/21 04:51:48;;;;;;;3.10;2.80;;;5.10;99.90;;;;;;5405724;26;20228;-70
2024/04/21 04:54:14;;;;;;;3.60;3.30;;;5.30;99.90;;;;;;5405238;26;20255;-70
2024/04/21 04:56:40;;;;;;;3.03;2.83;;;5.40;99.90;;;;;;5405718;26;20608;-70
2024/04/21 04:59:06;;;;;;;3.87;3.07;;;5.20;99.90;;;;;;5405664;26;20232;-70
2024/04/21 05:01:32;;;;;;;2.43;2.23;;;5.30;99.90;;;;;;5405585;26;20225;-68
2024/04/21 05:03:57;;;;;;;2.67;2.43;;;5.30;99.90;;;;;;5405777;26;21723;-71
2024/04/21 05:06:23;;;;;;;2.90;2.70;;;5.30;99.90;;;;;;5404986;26;20229;-69
2024/04/21 05:08:48;;;;;;;2.53;1.77;;;5.30;99.90;;;;;;5405443;26;20645;-70
2024/04/21 05:11:14;;;;;;;2.63;2.27;;;5.30;99.90;;;;;;5405302;26;20251;-69
2024/04/21 05:13:39;;;;;;;3.23;2.40;;;5.30;99.90;;;;;;5404288;26;20325;-71
2024/04/21 05:16:05;;;;;;;3.57;2.20;;;5.40;99.90;;;;;;5405013;26;20217;-68
2024/04/21 05:18:31;;;;;;;6.33;2.97;;;5.20;99.90;;;;;;5405433;26;20224;-70
2024/04/21 05:20:57;;;;;;;3.60;2.43;;;5.30;99.90;;;;;;5404676;26;20556;-69
2024/04/21 05:23:22;;;;;;;3.80;2.03;;;5.30;99.90;;;;;;5405576;26;20216;-69
2024/04/21 05:25:49;;;;;;;5.07;1.90;;;5.30;99.90;;;;;;5405456;26;20216;-70
2024/04/21 05:28:15;;;;;;;4.43;2.40;;;5.30;99.90;;;;;;5404776;26;20236;-70
2024/04/21 05:30:41;;;;;;;5.43;2.37;;;5.30;99.90;;;;;;5404897;26;20519;-68
2024/04/21 05:33:06;;;;;;;4.07;2.90;;;5.20;99.90;;;;;;5403416;26;20574;-70
2024/04/21 05:35:32;;;;;;;4.10;2.77;;;5.30;99.90;;;;;;5404697;26;20616;-71
2024/04/21 05:37:58;;;;;;;4.27;2.63;;;5.30;99.90;;;;;;5404477;26;20489;-70
2024/04/21 05:40:24;;;;;;;2.67;2.20;;;5.30;99.90;;;;;;5405167;26;20566;-70
2024/04/21 05:42:49;;;;;;;5.27;2.50;;;5.20;99.90;;;;;;5404448;26;20498;-70
2024/04/21 05:45:15;;;;;;;5.00;2.40;;;5.20;99.90;;;;;;5404969;26;20263;-70
2024/04/21 05:47:40;;;;;;;4.30;2.23;;;5.20;99.90;;;;;;5404580;26;21074;-70
2024/04/21 05:50:07;;;;;;;6.60;2.53;;;5.40;99.90;;;;;;5404581;26;20240;-71
2024/04/21 05:52:33;;;;;;;5.87;2.20;;;5.50;99.90;;;;;;5404624;26;20250;-71
2024/04/21 05:54:58;;;;;;;5.93;2.10;;;5.40;99.90;;;;;;5402638;26;20444;-71
2024/04/21 05:57:24;;;;;;;2.83;2.20;;;5.30;99.90;;;;;;5404194;26;20241;-71
2024/04/21 05:59:50;;;;;;;3.90;2.13;;;5.50;99.90;;;;;;5404650;26;20233;-69
2024/04/21 06:02:15;;;;;;;3.73;2.53;;;5.50;99.90;;;;;;5404431;26;21338;-70
2024/04/21 06:04:41;;;;;;;4.23;2.80;;;5.60;99.90;;;;;;5404397;26;21409;-69
2024/04/21 06:07:06;;;;;;;5.20;3.03;;;5.70;99.90;;;;;;5404527;26;20272;-71
2024/04/21 06:09:34;;;;;;;4.03;2.10;;;5.70;99.90;;;;;;5404202;26;20224;-69
2024/04/21 06:12:01;;;;;;;3.23;2.03;;;5.70;99.90;;;;;;5404511;26;20566;-70
2024/04/21 06:14:27;;;;;;;4.10;1.97;;;5.80;99.90;;;;;;5404652;26;20507;-71
2024/04/21 06:16:52;;;;;;;7.93;3.10;;;5.90;99.90;;;;;;5404189;26;20455;-71
2024/04/21 06:19:18;;;;;;;3.47;2.33;;;5.80;99.90;;;;;;5404600;26;20931;-71
2024/04/21 06:21:44;;;;;;;5.67;2.30;;;5.90;99.90;;;;;;5404391;26;20258;-70
2024/04/21 06:24:09;;;;;;;3.07;1.80;;;5.90;99.90;;;;;;5404238;26;20435;-72
2024/04/21 06:26:35;;;;;;;7.07;2.10;;;5.80;99.90;;;;;;5403863;26;20818;-70
2024/04/21 06:29:00;;;;;;;5.47;2.07;;;5.90;99.90;;;;;;5403647;26;20224;-71
2024/04/21 06:31:26;;;;;;;4.33;2.10;;;5.90;99.90;;;;;;5404005;26;20212;-71
2024/04/21 06:33:51;;;;;;;8.73;3.20;;;5.80;99.90;;;;;;5404074;26;20213;-69
2024/04/21 06:36:17;;;;;;;4.30;2.17;;;5.70;99.90;;;;;;5404049;26;20218;-71
2024/04/21 06:38:43;;;;;;;4.30;2.30;;;5.90;99.90;;;;;;5404360;26;20300;-72
2024/04/21 06:41:11;;;;;;;7.60;3.63;;;6.10;99.90;;;;;;5404657;26;20322;-70
2024/04/21 06:43:36;;;;;;;4.77;2.80;;;6.00;99.90;;;;;;5404011;26;20565;-69
2024/04/21 06:46:02;;;;;;;6.73;3.60;;;6.00;99.90;;;;;;5404212;26;20460;-71
2024/04/21 06:48:28;;;;;;;4.83;2.50;;;5.80;99.90;;;;;;5403362;26;20267;-69
2024/04/21 06:50:53;;;;;;;8.33;3.43;;;5.70;99.90;;;;;;5403241;26;20233;-70
2024/04/21 06:53:19;;;;;;;5.77;3.13;;;5.50;99.90;;;;;;5403594;26;20612;-72
2024/04/21 06:55:45;;;;;;;8.20;3.30;;;5.70;99.90;;;;;;5404071;26;20213;-71
2024/04/21 06:58:11;;;;;;;6.77;3.03;;;5.80;99.90;;;;;;5403688;26;20518;-71
2024/04/21 07:00:36;;;;;;;7.23;3.20;;;5.90;99.90;;;;;;5403700;26;20225;-70
2024/04/21 07:03:02;;;;;;;11.33;3.57;;;6.00;99.90;;;;;;5403748;26;20297;-70
2024/04/21 07:05:27;;;;;;;4.77;2.83;;;6.00;99.90;;;;;;5403939;26;20263;-68
2024/04/21 07:07:53;;;;;;;7.47;2.93;;;6.00;99.90;;;;;;5403935;26;20228;-71
2024/04/21 07:10:19;;;;;;;5.93;2.90;;;6.00;99.90;;;;;;5403302;26;20356;-69
2024/04/21 07:12:44;;;;;;;6.57;3.10;;;6.00;99.90;;;;;;5403721;26;20257;-71
2024/04/21 07:15:10;;;;;;;8.83;3.40;;;5.90;99.90;;;;;;5403651;26;20736;-70
2024/04/21 07:17:35;;;;;;;6.00;3.57;;;6.10;99.90;;;;;;5403600;26;20239;-71
2024/04/21 07:20:01;;;;;;;10.67;3.07;;;6.20;99.90;;;;;;5403194;26;20230;-70
2024/04/21 07:22:26;;;;;;;4.53;3.53;;;6.20;99.90;;;;;;5403938;26;20325;-71
2024/04/21 07:24:52;;;;;;;11.90;3.70;;;6.20;99.90;;;;;;5403429;26;20213;-70
2024/04/21 07:27:18;;;;;;;9.40;3.80;;;6.20;99.90;;;;;;5403214;26;20284;-72
2024/04/21 07:29:43;;;;;;;5.13;2.67;;;6.20;99.90;;;;;;5403418;26;20272;-71
2024/04/21 07:32:09;;;;;;;7.43;3.07;;;6.30;99.90;;;;;;5403186;26;20228;-73
2024/04/21 07:34:34;;;;;;;6.83;3.10;;;6.40;99.90;;;;;;5401563;26;20230;-71
2024/04/21 07:37:00;;;;;;;9.40;2.70;;;6.40;99.90;;;;;;5402451;26;20696;-70
2024/04/21 07:39:29;;;;;;;9.40;3.37;;;6.50;99.90;;;;;;5403163;26;20224;-71
2024/04/21 07:41:55;;;;;;;3.87;2.90;;;6.40;99.90;;;;;;5402999;26;20491;-70
2024/04/21 07:44:21;;;;;;;7.40;3.60;;;6.50;99.90;;;;;;5403200;26;20439;-71
2024/04/21 07:46:47;;;;;;;6.70;3.73;;;6.70;99.90;;;;;;5402762;26;20539;-71
2024/04/21 07:49:13;;;;;;;8.77;3.17;;;6.70;99.90;;;;;;5403136;26;20454;-71
2024/04/21 07:51:38;;;;;;;6.90;3.10;;;6.80;99.90;;;;;;5403285;26;20812;-70
2024/04/21 07:54:04;;;;;;;6.60;3.00;;;6.90;99.90;;;;;;5402950;26;20227;-67
2024/04/21 07:56:29;;;;;;;5.60;3.33;;;7.00;99.90;;;;;;5402813;26;20230;-70
2024/04/21 07:58:55;;;;;;;4.77;2.53;;;6.80;99.90;;;;;;5403089;26;20352;-70
2024/04/21 08:01:20;;;;;;;6.70;3.37;;;6.80;99.90;;;;;;5402905;26;20269;-70
2024/04/21 08:03:46;;;;;;;5.43;2.80;;;7.10;99.90;;;;;;5402497;26;20219;-71
2024/04/21 08:06:11;;;;;;;12.10;2.83;;;7.10;99.90;;;;;;5402793;26;20273;-70
2024/04/21 08:08:37;;;;;;;6.30;2.20;;;6.90;99.90;;;;;;5402900;26;20615;-69
2024/04/21 08:11:03;;;;;;;7.63;2.93;;;6.80;99.90;;;;;;5402986;26;20334;-71
2024/04/21 08:13:29;;;;;;;6.03;2.23;;;6.80;99.90;;;;;;5402468;26;20575;-69
2024/04/21 08:16:00;;;;;;;4.30;2.20;;;6.70;99.90;;;;;;5402551;26;20270;-71
2024/04/21 08:18:26;;;;;;;4.33;2.03;;;6.60;99.90;;;;;;5401186;26;20486;-70
2024/04/21 08:20:51;;;;;;;8.07;2.50;;;6.50;99.90;;;;;;5402209;26;20454;-70
2024/04/21 08:23:17;;;;;;;7.13;2.90;;;6.60;99.90;;;;;;5402504;26;20276;-71
2024/04/21 08:25:44;;;;;;;5.73;2.80;;;6.60;99.90;;;;;;5402392;26;20271;-70
2024/04/21 08:28:10;;;;;;;6.77;2.10;;;6.60;99.90;;;;;;5402168;26;20224;-70
2024/04/21 08:30:36;;;;;;;4.70;2.10;;;6.70;99.90;;;;;;5402348;26;20506;-69
2024/04/21 08:33:01;;;;;;;6.37;2.13;;;6.80;99.90;;;;;;5401656;26;20263;-69
2024/04/21 08:35:27;;;;;;;7.70;2.40;;;6.70;99.90;;;;;;5401966;26;20261;-71
2024/04/21 08:37:52;;;;;;;7.23;2.73;;;6.90;99.90;;;;;;5401076;26;20272;-70
2024/04/21 08:40:19;;;;;;;7.23;2.30;;;6.80;99.90;;;;;;5401848;26;20230;-69
2024/04/21 08:42:45;;;;;;;4.90;2.43;;;6.90;99.90;;;;;;5401425;26;20220;-70
2024/04/21 08:45:11;;;;;;;5.43;1.87;;;6.90;99.90;;;;;;5401703;26;20486;-71
2024/04/21 08:47:38;;;;;;;7.30;2.50;;;6.90;99.90;;;;;;5401658;26;20458;-71
2024/04/21 08:50:03;;;;;;;5.50;2.50;;;7.10;99.90;;;;;;5403419;26;20254;-70
2024/04/21 08:52:33;;;;;;;4.10;2.00;;;7.30;99.90;;;;;;5405113;26;20572;-70
2024/04/21 08:54:59;;;;;;;5.30;1.60;;;7.50;99.90;;;;;;5404443;26;20461;-69
2024/04/21 08:57:28;;;;;;;4.97;2.10;;;7.50;99.90;;;;;;5403529;26;20460;-70
2024/04/21 09:00:02;;;;;;;2.10;1.67;;;7.30;99.90;;;;;;5404657;26;20460;-69
2024/04/21 09:02:29;;;;;;;3.30;1.43;;;7.20;99.90;;;;;;5404923;26;20452;-70
2024/04/21 09:04:56;;;;;;;8.77;1.97;;;7.20;99.90;;;;;;5404752;26;20444;-70
2024/04/21 09:07:30;;;;;;;7.63;2.40;;;7.40;99.90;;;;;;5404798;26;20936;-69
2024/04/21 09:09:55;;;;;;;4.03;1.57;;;7.40;99.90;;;;;;5403988;26;21759;-69
2024/04/21 09:12:22;;;;;;;4.23;2.00;;;7.40;99.90;;;;;;5405077;26;20486;-69
2024/04/21 09:14:47;;;;;;;2.23;1.27;;;7.40;99.90;;;;;;5405215;26;20275;-68
2024/04/21 09:17:13;;;;;;;4.80;1.53;;;7.60;99.90;;;;;;5404788;26;20638;-69
2024/04/21 09:19:39;;;;;;;7.37;1.77;;;7.70;99.90;;;;;;5404739;26;20279;-69
2024/04/21 09:22:05;;;;;;;5.13;1.87;;;7.40;99.90;;;;;;5404239;26;20214;-70
2024/04/21 09:24:31;;;;;;;5.30;2.20;;;7.40;99.90;;;;;;5402663;26;20474;-68
2024/04/21 09:26:57;;;;;;;3.20;1.83;;;7.80;99.90;;;;;;5404338;26;20275;-68
2024/04/21 09:29:22;;;;;;;6.10;2.27;;;7.60;99.90;;;;;;5404644;26;21095;-68
2024/04/21 09:31:48;;;;;;;5.53;2.47;;;7.40;99.90;;;;;;5405079;26;20464;-68
2024/04/21 09:34:14;;;;;;;8.17;2.60;;;7.60;99.90;;;;;;5405264;26;20365;-67
2024/04/21 09:36:40;;;;;;;6.20;2.60;;;7.40;99.90;;;;;;5405024;26;20306;-68
2024/04/21 09:39:09;;;;;;;4.50;2.50;;;7.30;99.90;;;;;;5404700;26;20539;-67
2024/04/21 09:41:37;;;;;;;5.30;2.70;;;7.30;99.90;;;;;;5405127;26;20218;-68
2024/04/21 09:44:02;;;;;;;3.97;1.97;;;7.60;99.90;;;;;;5405344;26;20450;-68
2024/04/21 09:46:29;;;;;;;3.83;2.20;;;8.00;99.90;;;;;;5404630;26;20510;-68
2024/04/21 09:48:56;;;;;;;3.17;1.60;;;8.00;99.90;;;;;;5405176;26;20299;-68
2024/04/21 09:51:23;;;;;;;4.50;2.30;;;8.20;99.90;;;;;;5405094;26;20502;-68
2024/04/21 09:53:50;;;;;;;8.27;2.37;;;8.40;99.90;;;;;;5404797;26;20803;-68
2024/04/21 09:56:20;;;;;;;5.23;2.33;;;8.60;99.90;;;;;;5404791;26;20529;-68
2024/04/21 09:58:49;;;;;;;5.00;1.87;;;8.70;99.90;;;;;;5404643;26;20836;-67
2024/04/21 10:01:32;;;;;;;6.07;1.87;;;8.50;99.90;;;;;;5404371;26;20804;-69
2024/04/21 10:04:01;;;;;;;3.10;1.73;;;8.30;99.90;;;;;;5406410;26;21002;-68
2024/04/21 10:06:29;;;;;;;7.80;2.30;;;8.60;99.90;;;;;;5414126;26;20595;-67
2024/04/21 10:09:00;;;;;;;3.00;1.80;;;8.50;99.90;;;;;;5405967;26;20813;-68
2024/04/21 10:11:25;;;;;;;6.97;2.17;;;8.30;99.90;;;;;;5404436;26;20443;-68
2024/04/21 10:13:52;;;;;;;4.07;1.73;;;8.30;99.90;;;;;;5404413;26;20492;-68
2024/04/21 10:16:20;;;;;;;3.37;1.50;;;8.10;99.90;;;;;;5404155;26;20301;-68
2024/04/21 10:18:46;;;;;;;3.87;1.63;;;8.40;99.90;;;;;;5404488;26;20457;-68
2024/04/21 10:21:12;;;;;;;6.67;1.73;;;8.70;99.90;;;;;;5404478;26;20445;-68
2024/04/21 10:23:39;;;;;;;4.50;1.67;;;8.70;99.90;;;;;;5404236;26;20259;-67
2024/04/21 10:26:04;;;;;;;5.07;1.70;;;9.00;99.90;;;;;;5404194;26;20785;-69
2024/04/21 10:28:30;;;;;;;5.00;1.90;;;9.40;99.90;;;;;;5404016;26;20507;-68
2024/04/21 10:31:07;;;;;;;2.77;1.40;;;9.80;99.90;;;;;;5403896;26;20709;-67
2024/04/21 10:33:33;;;;;;;4.33;1.40;;;9.70;99.50;;;;;;5403695;26;20443;-68
2024/04/21 10:35:59;;;;;;;3.63;2.27;;;9.70;99.00;;;;;;5403819;26;20517;-67
2024/04/21 10:38:25;;;;;;;3.00;1.60;;;9.90;99.40;;;;;;5404348;26;20513;-68
2024/04/21 10:40:51;;;;;;;6.23;2.20;;;10.10;98.90;;;;;;5403845;26;20225;-68
2024/04/21 10:43:24;;;;;;;3.20;1.70;;;10.20;98.70;;;;;;5404193;26;20815;-68
2024/04/21 10:45:53;;;;;;;5.37;2.10;;;9.90;98.60;;;;;;5403701;26;20315;-67
2024/04/21 10:48:19;;;;;;;6.00;1.53;;;9.60;98.10;;;;;;5403325;26;20505;-68
2024/04/21 10:50:45;;;;;;;4.10;1.60;;;9.50;98.50;;;;;;5403801;26;21246;-68
2024/04/21 10:53:11;;;;;;;3.30;1.67;;;10.20;98.90;;;;;;5403774;26;20571;-68
2024/04/21 10:55:37;;;;;;;4.03;1.77;;;11.00;97.60;;;;;;5403334;26;20224;-68
2024/04/21 10:58:06;;;;;;;2.57;1.40;;;11.70;96.30;;;;;;5403536;26;20345;-68
2024/04/21 11:00:36;;;;;;;3.63;1.50;;;11.20;95.10;;;;;;5403827;26;20754;-68
2024/04/21 11:03:02;;;;;;;4.10;2.00;;;10.90;95.50;;;;;;5403520;26;20975;-68
2024/04/21 11:05:57;;;;;;;2.77;1.70;;;10.70;95.60;;;;;;5401799;26;20449;-68
2024/04/21 11:08:23;;;;;;;2.80;1.30;;;10.60;95.90;;;;;;5401584;26;20522;-68
2024/04/21 11:10:49;;;;;;;4.93;2.07;;;10.40;96.00;;;;;;5403462;26;20499;-68
2024/04/21 11:13:15;;;;;;;4.70;1.30;;;11.20;94.90;;;;;;5402504;26;20488;-68
2024/04/21 11:15:41;;;;;;;4.50;1.50;;;10.90;93.70;;;;;;5401478;26;20446;-67
2024/04/21 11:18:08;;;;;;;2.83;1.80;;;10.30;95.60;;;;;;5403296;26;20228;-68
2024/04/21 11:20:34;;;;;;;3.83;1.90;;;10.20;95.50;;;;;;5403412;26;20442;-68
2024/04/21 11:23:00;;;;;;;4.93;1.97;;;9.70;96.40;;;;;;5403262;26;20503;-68
2024/04/21 11:25:25;;;;;;;2.77;1.77;;;9.40;97.70;;;;;;5403150;26;20453;-68
2024/04/21 11:27:51;;;;;;;5.77;1.80;;;9.50;98.70;;;;;;5403113;26;20274;-68
2024/04/21 11:30:21;;;;;;;6.73;2.13;;;9.20;98.80;;;;;;5403341;26;20283;-68
2024/04/21 11:32:49;;;;;;;4.47;2.03;;;9.10;99.90;;;;;;5403365;26;20217;-68
2024/04/21 11:35:16;;;;;;;6.97;2.60;;;8.80;99.90;;;;;;5403568;26;21057;-67
2024/04/21 11:37:42;;;;;;;3.77;1.63;;;8.60;99.90;;;;;;5403289;26;20587;-68
2024/04/21 11:40:08;;;;;;;3.13;2.13;;;8.70;99.90;;;;;;5403350;26;21014;-68
2024/04/21 11:42:34;;;;;;;5.37;2.07;;;8.70;99.90;;;;;;5403182;26;21236;-67
2024/04/21 11:44:59;;;;;;;3.30;2.00;;;8.80;99.90;;;;;;5403129;26;20223;-68
2024/04/21 11:47:25;;;;;;;3.30;1.60;;;9.10;99.90;;;;;;5403026;26;20956;-68
2024/04/21 11:49:51;;;;;;;3.60;1.90;;;9.20;99.90;;;;;;5403254;26;20267;-68
2024/04/21 11:52:16;;;;;;;3.47;1.97;;;9.30;99.90;;;;;;5402973;26;20731;-68
2024/04/21 11:54:42;;;;;;;5.90;2.03;;;9.70;99.90;;;;;;5402949;26;20279;-68
2024/04/21 11:57:07;;;;;;;8.07;2.37;;;9.90;99.90;;;;;;5402768;26;20304;-69
2024/04/21 11:59:33;;;;;;;3.80;1.87;;;10.00;99.40;;;;;;5402900;26;20793;-68
2024/04/21 12:01:59;;;;;;;4.13;2.03;;;10.50;99.30;;;;;;5402922;26;20332;-67
2024/04/21 12:04:24;;;;;;;6.37;1.90;;;11.00;97.60;;;;;;5402824;26;20276;-68
2024/04/21 12:06:50;;;;;;;4.57;1.93;;;11.00;96.30;;;;;;5402760;26;20340;-68
2024/04/21 12:09:16;;;;;;;2.60;1.73;;;11.20;96.70;;;;;;5402772;26;20277;-68
2024/04/21 12:11:42;;;;;;;5.53;2.40;;;11.10;95.80;;;;;;5402790;26;20335;-68
2024/04/21 12:14:32;;;;;;;3.40;1.70;;;10.80;96.80;;;;;;5402171;26;20450;-68
2024/04/21 12:16:58;;;;;;;5.83;2.13;;;10.20;98.10;;;;;;5402479;26;20464;-68
2024/04/21 12:19:25;;;;;;;3.43;1.70;;;9.50;99.70;;;;;;5402102;26;20563;-68
2024/04/21 12:21:51;;;;;;;3.30;1.50;;;9.00;99.90;;;;;;5402871;26;20358;-68
2024/04/21 12:24:16;;;;;;;2.10;1.50;;;9.00;99.90;;;;;;5404829;26;20438;-68
2024/04/21 12:26:42;;;;;;;2.40;1.57;;;9.20;99.90;;;;;;5405964;26;20758;-68
2024/04/21 12:29:07;;;;;;;2.60;1.37;;;9.30;99.90;;;;;;5404974;26;20227;-68
2024/04/21 12:31:33;;;;;;;3.37;1.80;;;9.20;99.10;;;;;;5406257;26;20224;-69
2024/04/21 12:33:58;;;;;;;7.83;2.03;;;9.10;98.00;;;;;;5405684;26;20232;-68
2024/04/21 12:36:24;;;;;;;4.07;1.80;;;9.20;98.40;;;;;;5406322;26;20269;-68
2024/04/21 12:38:49;;;;;;;2.97;1.80;;;9.50;98.80;;;;;;5405419;26;20280;-69
2024/04/21 12:41:15;;;;;;;1.87;1.40;;;9.80;98.50;;;;;;5405795;26;20560;-68
2024/04/21 12:43:41;;;;;;;5.90;1.83;;;10.50;96.70;;;;;;5405612;26;20633;-67
2024/04/21 12:46:06;;;;;;;3.20;1.43;;;10.60;97.90;;;;;;5405990;26;20261;-68
2024/04/21 12:48:32;;;;;;;4.17;2.00;;;11.00;96.80;;;;;;5405472;26;20266;-68
2024/04/21 12:50:57;;;;;;;4.80;2.13;;;10.70;97.20;;;;;;5405051;26;20224;-68